首页
METAR-TAF:

METAR-TAF

机场 :

奥斯陆加勒穆恩机场

奥斯陆, 挪威

纬度: 60-12N, 经度: 011-05E, 海拔: 208米

当前天气观测

该预报发布于23分钟前的01:20 UTC
风速9节,风向西南
温度 5°C
湿度 81%
气压 992 hPa
能见度10公里或以上
1500米以下无云,无积雨云

METAR: ENGM 230120Z 22009KT CAVOK 05/02 Q0992

时间: 03:43 (01:43 UTC)

预报

预报有效从23日的 00点(UTC)到 23日的 24点(UTC)
风速8节,风向南转西南
能见度10公里或以上
少量云层高于2000英尺
多云层高于4000英尺
成为
从 23日的 06点(UTC)到 23日的 08点(UTC)
风速10节,风向西转西北
短暂存在
从 23日的 09点(UTC)到 23日的 18点(UTC)
风速15节,风向西北,有时为28节阵风

TAF: ENGM 2300/2324 20008KT 9999 FEW020 BKN040 BECMG 2306/2308 30010KT TEMPO 2309/2318 32015G28KT

超过4000个机场的气象观测和天气预报(METAR&TAF报告)。

可查询的气象台以黄色和红色小点在地图上表示。

将鼠标移到小点上方,可查看气象台名称。

然后点击查看天气观测和预报。

如需切换地图:点击带黑十字的绿色按钮放大地图;点击带横线的绿色按钮缩小地图;或者点击绿色箭头查看邻近地区的地图。


METAR-TAF: